sensor_id;sensor_type;location;lat;lon;timestamp;P1;durP1;ratioP1;P2;durP2;ratioP2
16699;SDS011;8466;52.286;21.124;2023-04-03T00:01:22;22.00;;;20.70;;
16699;SDS011;8466;52.286;21.124;2023-04-03T00:03:52;26.77;;;25.37;;
16699;SDS011;8466;52.286;21.124;2023-04-03T00:06:20;24.30;;;23.00;;
16699;SDS011;8466;52.286;21.124;2023-04-03T00:08:49;21.67;;;20.47;;
16699;SDS011;8466;52.286;21.124;2023-04-03T00:11:18;18.90;;;17.90;;
16699;SDS011;8466;52.286;21.124;2023-04-03T00:13:48;21.80;;;20.63;;
16699;SDS011;8466;52.286;21.124;2023-04-03T00:16:18;22.87;;;21.60;;
16699;SDS011;8466;52.286;21.124;2023-04-03T00:18:47;23.67;;;22.47;;
16699;SDS011;8466;52.286;21.124;2023-04-03T00:21:15;26.60;;;25.23;;
16699;SDS011;8466;52.286;21.124;2023-04-03T00:23:44;19.90;;;18.63;;
16699;SDS011;8466;52.286;21.124;2023-04-03T00:26:12;19.93;;;18.87;;
16699;SDS011;8466;52.286;21.124;2023-04-03T00:28:41;20.93;;;19.63;;
16699;SDS011;8466;52.286;21.124;2023-04-03T00:31:10;18.00;;;16.90;;
16699;SDS011;8466;52.286;21.124;2023-04-03T00:33:40;16.47;;;15.60;;
16699;SDS011;8466;52.286;21.124;2023-04-03T00:36:09;21.30;;;20.17;;
16699;SDS011;8466;52.286;21.124;2023-04-03T00:38:39;17.47;;;16.50;;
16699;SDS011;8466;52.286;21.124;2023-04-03T00:41:08;22.33;;;21.07;;
16699;SDS011;8466;52.286;21.124;2023-04-03T00:43:36;17.57;;;16.43;;
16699;SDS011;8466;52.286;21.124;2023-04-03T00:46:05;17.50;;;16.53;;
16699;SDS011;8466;52.286;21.124;2023-04-03T00:48:34;19.10;;;18.10;;
16699;SDS011;8466;52.286;21.124;2023-04-03T00:51:07;19.10;;;18.07;;
16699;SDS011;8466;52.286;21.124;2023-04-03T00:53:40;17.37;;;16.43;;
16699;SDS011;8466;52.286;21.124;2023-04-03T00:56:12;14.60;;;13.63;;
16699;SDS011;8466;52.286;21.124;2023-04-03T00:58:44;18.23;;;17.27;;
16699;SDS011;8466;52.286;21.124;2023-04-03T01:01:17;15.97;;;15.03;;
16699;SDS011;8466;52.286;21.124;2023-04-03T01:03:49;16.00;;;15.03;;
16699;SDS011;8466;52.286;21.124;2023-04-03T01:06:20;15.53;;;14.63;;
16699;SDS011;8466;52.286;21.124;2023-04-03T01:08:57;14.17;;;13.27;;
16699;SDS011;8466;52.286;21.124;2023-04-03T01:11:27;15.87;;;14.67;;
16699;SDS011;8466;52.286;21.124;2023-04-03T01:13:56;15.63;;;14.63;;
16699;SDS011;8466;52.286;21.124;2023-04-03T01:16:29;19.13;;;17.93;;
16699;SDS011;8466;52.286;21.124;2023-04-03T01:19:02;15.50;;;14.47;;
16699;SDS011;8466;52.286;21.124;2023-04-03T01:24:32;15.20;;;14.20;;
16699;SDS011;8466;52.286;21.124;2023-04-03T01:27:04;14.07;;;13.10;;
16699;SDS011;8466;52.286;21.124;2023-04-03T01:29:35;13.10;;;12.40;;
16699;SDS011;8466;52.286;21.124;2023-04-03T01:32:06;13.43;;;12.70;;
16699;SDS011;8466;52.286;21.124;2023-04-03T01:34:36;13.27;;;12.23;;
16699;SDS011;8466;52.286;21.124;2023-04-03T01:37:05;13.40;;;12.63;;
16699;SDS011;8466;52.286;21.124;2023-04-03T01:39:34;12.90;;;12.10;;
16699;SDS011;8466;52.286;21.124;2023-04-03T01:42:04;13.40;;;12.63;;
16699;SDS011;8466;52.286;21.124;2023-04-03T01:44:33;14.83;;;13.93;;
16699;SDS011;8466;52.286;21.124;2023-04-03T01:47:02;12.37;;;11.67;;
16699;SDS011;8466;52.286;21.124;2023-04-03T01:49:35;12.73;;;11.93;;
16699;SDS011;8466;52.286;21.124;2023-04-03T01:52:04;12.73;;;11.87;;
16699;SDS011;8466;52.286;21.124;2023-04-03T01:54:32;11.93;;;11.20;;
16699;SDS011;8466;52.286;21.124;2023-04-03T01:57:01;13.23;;;12.53;;
16699;SDS011;8466;52.286;21.124;2023-04-03T01:59:30;13.83;;;13.03;;
16699;SDS011;8466;52.286;21.124;2023-04-03T02:01:59;11.70;;;11.00;;
16699;SDS011;8466;52.286;21.124;2023-04-03T02:04:29;12.20;;;11.43;;
16699;SDS011;8466;52.286;21.124;2023-04-03T02:06:57;11.93;;;11.13;;
16699;SDS011;8466;52.286;21.124;2023-04-03T02:09:26;11.27;;;10.57;;
16699;SDS011;8466;52.286;21.124;2023-04-03T02:11:55;11.67;;;10.83;;
16699;SDS011;8466;52.286;21.124;2023-04-03T02:14:24;11.07;;;10.17;;
16699;SDS011;8466;52.286;21.124;2023-04-03T02:16:53;12.60;;;11.80;;
16699;SDS011;8466;52.286;21.124;2023-04-03T02:19:22;12.53;;;11.73;;
16699;SDS011;8466;52.286;21.124;2023-04-03T02:21:52;10.40;;;9.73;;
16699;SDS011;8466;52.286;21.124;2023-04-03T02:24:21;9.53;;;8.90;;
16699;SDS011;8466;52.286;21.124;2023-04-03T02:26:50;8.67;;;8.13;;
16699;SDS011;8466;52.286;21.124;2023-04-03T02:29:18;9.73;;;9.20;;
16699;SDS011;8466;52.286;21.124;2023-04-03T02:31:47;9.30;;;8.80;;
16699;SDS011;8466;52.286;21.124;2023-04-03T02:34:16;9.13;;;8.50;;
16699;SDS011;8466;52.286;21.124;2023-04-03T02:36:44;7.17;;;6.67;;
16699;SDS011;8466;52.286;21.124;2023-04-03T02:39:14;6.93;;;6.50;;
16699;SDS011;8466;52.286;21.124;2023-04-03T02:41:43;6.30;;;5.80;;
16699;SDS011;8466;52.286;21.124;2023-04-03T02:44:12;7.40;;;6.93;;
16699;SDS011;8466;52.286;21.124;2023-04-03T02:46:41;7.67;;;7.27;;
16699;SDS011;8466;52.286;21.124;2023-04-03T02:49:10;10.18;;;9.48;;
16699;SDS011;8466;52.286;21.124;2023-04-03T02:51:39;33.60;;;31.77;;
16699;SDS011;8466;52.286;21.124;2023-04-03T02:54:07;12.10;;;11.37;;
16699;SDS011;8466;52.286;21.124;2023-04-03T02:56:37;10.80;;;9.80;;
16699;SDS011;8466;52.286;21.124;2023-04-03T02:59:06;7.83;;;7.33;;
16699;SDS011;8466;52.286;21.124;2023-04-03T03:01:35;6.67;;;6.13;;
16699;SDS011;8466;52.286;21.124;2023-04-03T03:04:03;5.83;;;5.43;;
16699;SDS011;8466;52.286;21.124;2023-04-03T03:06:32;6.60;;;6.00;;
16699;SDS011;8466;52.286;21.124;2023-04-03T03:09:01;9.90;;;9.10;;
16699;SDS011;8466;52.286;21.124;2023-04-03T03:11:30;11.23;;;10.30;;
16699;SDS011;8466;52.286;21.124;2023-04-03T03:14:00;12.77;;;11.97;;
16699;SDS011;8466;52.286;21.124;2023-04-03T03:16:28;14.63;;;13.63;;
16699;SDS011;8466;52.286;21.124;2023-04-03T03:18:57;10.03;;;9.43;;
16699;SDS011;8466;52.286;21.124;2023-04-03T03:21:26;15.87;;;9.60;;
16699;SDS011;8466;52.286;21.124;2023-04-03T03:23:55;24.87;;;23.30;;
16699;SDS011;8466;52.286;21.124;2023-04-03T03:26:23;12.23;;;11.33;;
16699;SDS011;8466;52.286;21.124;2023-04-03T03:28:52;4.90;;;3.80;;
16699;SDS011;8466;52.286;21.124;2023-04-03T03:31:22;20.03;;;11.47;;
16699;SDS011;8466;52.286;21.124;2023-04-03T03:33:50;9.73;;;9.13;;
16699;SDS011;8466;52.286;21.124;2023-04-03T03:36:19;8.73;;;8.13;;
16699;SDS011;8466;52.286;21.124;2023-04-03T03:38:48;7.03;;;6.60;;
16699;SDS011;8466;52.286;21.124;2023-04-03T03:41:16;5.00;;;4.60;;
16699;SDS011;8466;52.286;21.124;2023-04-03T03:43:45;3.97;;;3.57;;
16699;SDS011;8466;52.286;21.124;2023-04-03T03:46:14;15.10;;;6.53;;
16699;SDS011;8466;52.286;21.124;2023-04-03T03:48:44;7.63;;;4.13;;
16699;SDS011;8466;52.286;21.124;2023-04-03T03:51:12;5.30;;;4.10;;
16699;SDS011;8466;52.286;21.124;2023-04-03T03:53:42;10.93;;;7.10;;
16699;SDS011;8466;52.286;21.124;2023-04-03T03:56:10;4.57;;;4.17;;
16699;SDS011;8466;52.286;21.124;2023-04-03T03:58:39;5.80;;;4.60;;
16699;SDS011;8466;52.286;21.124;2023-04-03T04:01:08;4.47;;;4.17;;
16699;SDS011;8466;52.286;21.124;2023-04-03T04:03:36;4.70;;;3.77;;
16699;SDS011;8466;52.286;21.124;2023-04-03T04:06:06;4.87;;;4.37;;
16699;SDS011;8466;52.286;21.124;2023-04-03T04:08:35;5.00;;;3.80;;
16699;SDS011;8466;52.286;21.124;2023-04-03T04:11:04;6.37;;;5.00;;
16699;SDS011;8466;52.286;21.124;2023-04-03T04:13:33;12.33;;;7.77;;
16699;SDS011;8466;52.286;21.124;2023-04-03T04:16:01;8.50;;;5.23;;
16699;SDS011;8466;52.286;21.124;2023-04-03T04:18:30;4.67;;;4.00;;
16699;SDS011;8466;52.286;21.124;2023-04-03T04:20:58;5.70;;;5.27;;
16699;SDS011;8466;52.286;21.124;2023-04-03T04:23:29;5.23;;;4.83;;
16699;SDS011;8466;52.286;21.124;2023-04-03T04:25:58;5.67;;;4.67;;
16699;SDS011;8466;52.286;21.124;2023-04-03T04:28:27;5.20;;;4.83;;
16699;SDS011;8466;52.286;21.124;2023-04-03T04:30:56;5.67;;;5.17;;
16699;SDS011;8466;52.286;21.124;2023-04-03T04:33:25;5.83;;;5.43;;
16699;SDS011;8466;52.286;21.124;2023-04-03T04:35:53;5.73;;;5.27;;
16699;SDS011;8466;52.286;21.124;2023-04-03T04:38:22;6.50;;;6.00;;
16699;SDS011;8466;52.286;21.124;2023-04-03T04:40:52;6.77;;;6.27;;
16699;SDS011;8466;52.286;21.124;2023-04-03T04:43:21;7.37;;;6.87;;
16699;SDS011;8466;52.286;21.124;2023-04-03T04:46:01;6.90;;;6.43;;
16699;SDS011;8466;52.286;21.124;2023-04-03T04:48:31;8.17;;;7.67;;
16699;SDS011;8466;52.286;21.124;2023-04-03T04:51:00;8.30;;;7.70;;
16699;SDS011;8466;52.286;21.124;2023-04-03T04:53:29;7.83;;;7.13;;
16699;SDS011;8466;52.286;21.124;2023-04-03T04:55:59;16.98;;;15.63;;
16699;SDS011;8466;52.286;21.124;2023-04-03T04:58:28;21.23;;;19.93;;
16699;SDS011;8466;52.286;21.124;2023-04-03T05:01:00;10.27;;;9.67;;
16699;SDS011;8466;52.286;21.124;2023-04-03T05:03:29;5.27;;;4.87;;
16699;SDS011;8466;52.286;21.124;2023-04-03T05:05:58;27.23;;;25.57;;
16699;SDS011;8466;52.286;21.124;2023-04-03T05:08:27;10.80;;;10.10;;
16699;SDS011;8466;52.286;21.124;2023-04-03T05:10:56;6.80;;;6.30;;
16699;SDS011;8466;52.286;21.124;2023-04-03T05:13:27;8.67;;;7.90;;
16699;SDS011;8466;52.286;21.124;2023-04-03T05:15:55;7.97;;;7.37;;
16699;SDS011;8466;52.286;21.124;2023-04-03T05:18:24;8.73;;;8.03;;
16699;SDS011;8466;52.286;21.124;2023-04-03T05:20:53;8.80;;;8.00;;
16699;SDS011;8466;52.286;21.124;2023-04-03T05:23:21;9.93;;;9.30;;
16699;SDS011;8466;52.286;21.124;2023-04-03T05:25:50;9.40;;;8.60;;
16699;SDS011;8466;52.286;21.124;2023-04-03T05:28:18;10.37;;;9.37;;
16699;SDS011;8466;52.286;21.124;2023-04-03T05:30:53;14.53;;;13.57;;
16699;SDS011;8466;52.286;21.124;2023-04-03T05:33:23;14.03;;;13.03;;
16699;SDS011;8466;52.286;21.124;2023-04-03T05:35:52;15.73;;;14.23;;
16699;SDS011;8466;52.286;21.124;2023-04-03T05:38:22;40.10;;;37.03;;
16699;SDS011;8466;52.286;21.124;2023-04-03T05:40:50;24.43;;;22.50;;
16699;SDS011;8466;52.286;21.124;2023-04-03T05:43:19;25.20;;;22.80;;
16699;SDS011;8466;52.286;21.124;2023-04-03T05:45:48;32.20;;;28.87;;
16699;SDS011;8466;52.286;21.124;2023-04-03T05:48:18;21.37;;;20.17;;
16699;SDS011;8466;52.286;21.124;2023-04-03T05:50:46;24.30;;;22.87;;
16699;SDS011;8466;52.286;21.124;2023-04-03T05:53:16;24.53;;;23.17;;
16699;SDS011;8466;52.286;21.124;2023-04-03T05:55:49;19.40;;;18.10;;
16699;SDS011;8466;52.286;21.124;2023-04-03T05:58:17;22.60;;;21.27;;
16699;SDS011;8466;52.286;21.124;2023-04-03T06:00:46;22.93;;;21.37;;
16699;SDS011;8466;52.286;21.124;2023-04-03T06:03:15;19.07;;;17.93;;
16699;SDS011;8466;52.286;21.124;2023-04-03T06:05:45;17.97;;;16.73;;
16699;SDS011;8466;52.286;21.124;2023-04-03T06:08:14;18.17;;;17.07;;
16699;SDS011;8466;52.286;21.124;2023-04-03T06:10:43;23.60;;;22.03;;
16699;SDS011;8466;52.286;21.124;2023-04-03T06:13:12;9.93;;;9.23;;
16699;SDS011;8466;52.286;21.124;2023-04-03T06:15:40;23.63;;;22.03;;
16699;SDS011;8466;52.286;21.124;2023-04-03T06:18:09;23.33;;;21.87;;
16699;SDS011;8466;52.286;21.124;2023-04-03T06:20:38;23.83;;;22.30;;
16699;SDS011;8466;52.286;21.124;2023-04-03T06:23:08;13.37;;;12.47;;
16699;SDS011;8466;52.286;21.124;2023-04-03T06:25:37;13.27;;;12.23;;
16699;SDS011;8466;52.286;21.124;2023-04-03T06:28:05;14.07;;;12.90;;
16699;SDS011;8466;52.286;21.124;2023-04-03T06:30:35;10.00;;;9.23;;
16699;SDS011;8466;52.286;21.124;2023-04-03T06:33:05;12.83;;;11.93;;
16699;SDS011;8466;52.286;21.124;2023-04-03T06:35:33;8.13;;;7.63;;
16699;SDS011;8466;52.286;21.124;2023-04-03T06:38:03;8.13;;;7.40;;
16699;SDS011;8466;52.286;21.124;2023-04-03T06:40:37;7.40;;;6.70;;
16699;SDS011;8466;52.286;21.124;2023-04-03T06:43:05;6.30;;;5.70;;
16699;SDS011;8466;52.286;21.124;2023-04-03T06:45:35;9.13;;;8.53;;
16699;SDS011;8466;52.286;21.124;2023-04-03T06:48:04;8.83;;;8.13;;
16699;SDS011;8466;52.286;21.124;2023-04-03T06:50:33;7.13;;;6.60;;
16699;SDS011;8466;52.286;21.124;2023-04-03T06:53:02;8.20;;;7.50;;
16699;SDS011;8466;52.286;21.124;2023-04-03T06:55:31;7.17;;;6.47;;
16699;SDS011;8466;52.286;21.124;2023-04-03T06:58:01;10.07;;;9.27;;
16699;SDS011;8466;52.286;21.124;2023-04-03T07:00:30;7.13;;;5.83;;
16699;SDS011;8466;52.286;21.124;2023-04-03T07:02:59;14.37;;;13.27;;
16699;SDS011;8466;52.286;21.124;2023-04-03T07:05:28;7.10;;;6.43;;
16699;SDS011;8466;52.286;21.124;2023-04-03T07:07:57;5.53;;;4.03;;
16699;SDS011;8466;52.286;21.124;2023-04-03T07:10:26;5.57;;;5.13;;
16699;SDS011;8466;52.286;21.124;2023-04-03T07:12:55;8.07;;;7.50;;
16699;SDS011;8466;52.286;21.124;2023-04-03T07:15:24;12.23;;;11.33;;
16699;SDS011;8466;52.286;21.124;2023-04-03T07:17:53;11.60;;;10.73;;
16699;SDS011;8466;52.286;21.124;2023-04-03T07:20:22;8.87;;;8.23;;
16699;SDS011;8466;52.286;21.124;2023-04-03T07:22:51;9.17;;;8.47;;
16699;SDS011;8466;52.286;21.124;2023-04-03T07:25:19;12.40;;;11.60;;
16699;SDS011;8466;52.286;21.124;2023-04-03T07:27:48;18.60;;;17.40;;
16699;SDS011;8466;52.286;21.124;2023-04-03T07:30:17;24.93;;;23.30;;
16699;SDS011;8466;52.286;21.124;2023-04-03T07:32:47;19.93;;;18.53;;
16699;SDS011;8466;52.286;21.124;2023-04-03T07:35:16;69.70;;;63.67;;
16699;SDS011;8466;52.286;21.124;2023-04-03T07:37:45;18.87;;;17.63;;
16699;SDS011;8466;52.286;21.124;2023-04-03T07:40:14;19.07;;;17.53;;
16699;SDS011;8466;52.286;21.124;2023-04-03T07:42:45;14.33;;;13.13;;
16699;SDS011;8466;52.286;21.124;2023-04-03T07:45:13;14.20;;;13.00;;
16699;SDS011;8466;52.286;21.124;2023-04-03T07:47:44;15.23;;;14.13;;
16699;SDS011;8466;52.286;21.124;2023-04-03T07:50:14;19.03;;;17.57;;
16699;SDS011;8466;52.286;21.124;2023-04-03T07:52:42;18.60;;;17.23;;
16699;SDS011;8466;52.286;21.124;2023-04-03T07:55:12;17.17;;;15.70;;
16699;SDS011;8466;52.286;21.124;2023-04-03T07:57:40;19.73;;;18.10;;
16699;SDS011;8466;52.286;21.124;2023-04-03T08:00:10;10.53;;;9.83;;
16699;SDS011;8466;52.286;21.124;2023-04-03T08:02:40;13.23;;;12.40;;
16699;SDS011;8466;52.286;21.124;2023-04-03T08:05:08;43.47;;;39.47;;
16699;SDS011;8466;52.286;21.124;2023-04-03T08:07:39;46.80;;;43.53;;
16699;SDS011;8466;52.286;21.124;2023-04-03T08:10:08;14.40;;;13.07;;
16699;SDS011;8466;52.286;21.124;2023-04-03T08:12:37;36.67;;;33.30;;
16699;SDS011;8466;52.286;21.124;2023-04-03T08:15:05;10.83;;;9.87;;
16699;SDS011;8466;52.286;21.124;2023-04-03T08:17:35;19.53;;;17.93;;
16699;SDS011;8466;52.286;21.124;2023-04-03T08:20:05;17.40;;;16.10;;
16699;SDS011;8466;52.286;21.124;2023-04-03T08:22:35;17.33;;;15.63;;
16699;SDS011;8466;52.286;21.124;2023-04-03T08:25:05;12.03;;;10.80;;
16699;SDS011;8466;52.286;21.124;2023-04-03T08:27:35;20.63;;;19.03;;
16699;SDS011;8466;52.286;21.124;2023-04-03T08:30:05;16.33;;;15.27;;
16699;SDS011;8466;52.286;21.124;2023-04-03T08:32:35;13.60;;;12.67;;
16699;SDS011;8466;52.286;21.124;2023-04-03T08:35:04;16.63;;;15.70;;
16699;SDS011;8466;52.286;21.124;2023-04-03T08:37:34;19.80;;;17.93;;
16699;SDS011;8466;52.286;21.124;2023-04-03T08:40:07;12.80;;;11.80;;
16699;SDS011;8466;52.286;21.124;2023-04-03T08:42:42;12.00;;;11.30;;
16699;SDS011;8466;52.286;21.124;2023-04-03T08:45:35;19.97;;;18.37;;
16699;SDS011;8466;52.286;21.124;2023-04-03T08:48:12;15.23;;;14.13;;
16699;SDS011;8466;52.286;21.124;2023-04-03T08:50:43;17.17;;;15.80;;
16699;SDS011;8466;52.286;21.124;2023-04-03T08:53:16;7.05;;;6.10;;
16699;SDS011;8466;52.286;21.124;2023-04-03T08:55:49;61.90;;;57.20;;
16699;SDS011;8466;52.286;21.124;2023-04-03T08:58:20;33.17;;;31.37;;
16699;SDS011;8466;52.286;21.124;2023-04-03T09:00:51;32.93;;;31.03;;
16699;SDS011;8466;52.286;21.124;2023-04-03T09:03:23;7.93;;;7.30;;
16699;SDS011;8466;52.286;21.124;2023-04-03T09:05:53;12.27;;;11.47;;
16699;SDS011;8466;52.286;21.124;2023-04-03T09:08:28;7.83;;;7.33;;
16699;SDS011;8466;52.286;21.124;2023-04-03T09:11:04;6.63;;;6.13;;
16699;SDS011;8466;52.286;21.124;2023-04-03T09:13:43;12.87;;;12.03;;
16699;SDS011;8466;52.286;21.124;2023-04-03T09:16:21;8.77;;;8.20;;
16699;SDS011;8466;52.286;21.124;2023-04-03T09:18:57;8.80;;;8.23;;
16699;SDS011;8466;52.286;21.124;2023-04-03T09:21:36;6.47;;;6.07;;
16699;SDS011;8466;52.286;21.124;2023-04-03T09:24:09;47.03;;;44.28;;
16699;SDS011;8466;52.286;21.124;2023-04-03T09:26:42;4.00;;;2.88;;
16699;SDS011;8466;52.286;21.124;2023-04-03T09:29:16;79.80;;;75.13;;
16699;SDS011;8466;52.286;21.124;2023-04-03T09:31:47;18.97;;;17.93;;
16699;SDS011;8466;52.286;21.124;2023-04-03T09:34:19;11.87;;;10.97;;
16699;SDS011;8466;52.286;21.124;2023-04-03T09:36:53;12.13;;;11.37;;
16699;SDS011;8466;52.286;21.124;2023-04-03T09:39:23;13.37;;;12.47;;
16699;SDS011;8466;52.286;21.124;2023-04-03T09:41:59;10.33;;;9.73;;
16699;SDS011;8466;52.286;21.124;2023-04-03T09:44:30;24.67;;;22.10;;
16699;SDS011;8466;52.286;21.124;2023-04-03T09:47:00;8.40;;;7.90;;
16699;SDS011;8466;52.286;21.124;2023-04-03T09:49:46;8.57;;;8.07;;
16699;SDS011;8466;52.286;21.124;2023-04-03T09:52:18;9.93;;;9.33;;
16699;SDS011;8466;52.286;21.124;2023-04-03T09:54:48;7.07;;;6.73;;
16699;SDS011;8466;52.286;21.124;2023-04-03T09:57:18;8.53;;;8.13;;
16699;SDS011;8466;52.286;21.124;2023-04-03T09:59:47;9.37;;;8.87;;
16699;SDS011;8466;52.286;21.124;2023-04-03T10:02:32;14.03;;;13.33;;
16699;SDS011;8466;52.286;21.124;2023-04-03T10:05:03;8.13;;;7.73;;
16699;SDS011;8466;52.286;21.124;2023-04-03T10:07:52;7.27;;;6.83;;
16699;SDS011;8466;52.286;21.124;2023-04-03T10:10:36;12.37;;;11.67;;
16699;SDS011;8466;52.286;21.124;2023-04-03T10:13:09;10.43;;;9.87;;
16699;SDS011;8466;52.286;21.124;2023-04-03T10:15:48;10.23;;;9.33;;
16699;SDS011;8466;52.286;21.124;2023-04-03T10:18:27;17.80;;;16.87;;
16699;SDS011;8466;52.286;21.124;2023-04-03T10:21:03;11.03;;;10.33;;
16699;SDS011;8466;52.286;21.124;2023-04-03T10:23:47;9.90;;;9.37;;
16699;SDS011;8466;52.286;21.124;2023-04-03T10:26:23;8.60;;;8.13;;
16699;SDS011;8466;52.286;21.124;2023-04-03T10:29:05;11.23;;;10.53;;
16699;SDS011;8466;52.286;21.124;2023-04-03T10:31:40;12.67;;;11.73;;
16699;SDS011;8466;52.286;21.124;2023-04-03T10:34:18;42.33;;;38.87;;
16699;SDS011;8466;52.286;21.124;2023-04-03T10:36:52;13.10;;;12.47;;
16699;SDS011;8466;52.286;21.124;2023-04-03T10:39:27;15.83;;;14.87;;
16699;SDS011;8466;52.286;21.124;2023-04-03T10:42:03;27.67;;;26.23;;
16699;SDS011;8466;52.286;21.124;2023-04-03T10:44:50;21.17;;;20.03;;
16699;SDS011;8466;52.286;21.124;2023-04-03T10:47:30;18.73;;;17.57;;
16699;SDS011;8466;52.286;21.124;2023-04-03T10:50:09;34.27;;;32.33;;
16699;SDS011;8466;52.286;21.124;2023-04-03T10:52:52;26.60;;;25.10;;
16699;SDS011;8466;52.286;21.124;2023-04-03T10:55:31;20.30;;;19.13;;
16699;SDS011;8466;52.286;21.124;2023-04-03T10:58:05;26.80;;;25.43;;
16699;SDS011;8466;52.286;21.124;2023-04-03T11:00:45;18.80;;;17.77;;
16699;SDS011;8466;52.286;21.124;2023-04-03T11:03:21;22.17;;;21.00;;
16699;SDS011;8466;52.286;21.124;2023-04-03T11:05:57;28.43;;;26.87;;
16699;SDS011;8466;52.286;21.124;2023-04-03T11:08:31;30.23;;;28.53;;
16699;SDS011;8466;52.286;21.124;2023-04-03T11:11:08;39.53;;;36.50;;
16699;SDS011;8466;52.286;21.124;2023-04-03T11:13:41;30.70;;;29.00;;
16699;SDS011;8466;52.286;21.124;2023-04-03T11:16:15;22.80;;;21.20;;
16699;SDS011;8466;52.286;21.124;2023-04-03T11:18:49;19.17;;;18.13;;
16699;SDS011;8466;52.286;21.124;2023-04-03T11:21:22;35.17;;;33.33;;
16699;SDS011;8466;52.286;21.124;2023-04-03T11:23:57;24.00;;;22.70;;
16699;SDS011;8466;52.286;21.124;2023-04-03T11:26:28;17.37;;;16.40;;
16699;SDS011;8466;52.286;21.124;2023-04-03T11:29:01;16.53;;;15.50;;
16699;SDS011;8466;52.286;21.124;2023-04-03T11:31:41;24.47;;;23.10;;
16699;SDS011;8466;52.286;21.124;2023-04-03T11:34:33;28.80;;;27.07;;
16699;SDS011;8466;52.286;21.124;2023-04-03T11:37:06;32.93;;;30.87;;
16699;SDS011;8466;52.286;21.124;2023-04-03T11:39:46;26.80;;;25.33;;
16699;SDS011;8466;52.286;21.124;2023-04-03T11:42:24;47.23;;;44.60;;
16699;SDS011;8466;52.286;21.124;2023-04-03T11:47:55;23.77;;;22.43;;
16699;SDS011;8466;52.286;21.124;2023-04-03T11:50:31;53.93;;;50.87;;
16699;SDS011;8466;52.286;21.124;2023-04-03T11:53:30;48.23;;;45.53;;
16699;SDS011;8466;52.286;21.124;2023-04-03T11:59:16;53.93;;;50.67;;
16699;SDS011;8466;52.286;21.124;2023-04-03T12:01:50;59.57;;;55.97;;
16699;SDS011;8466;52.286;21.124;2023-04-03T12:04:22;61.60;;;57.87;;
16699;SDS011;8466;52.286;21.124;2023-04-03T12:06:58;75.83;;;70.97;;
16699;SDS011;8466;52.286;21.124;2023-04-03T12:12:58;41.27;;;38.83;;
16699;SDS011;8466;52.286;21.124;2023-04-03T12:21:25;35.53;;;33.63;;
16699;SDS011;8466;52.286;21.124;2023-04-03T12:24:34;33.93;;;32.03;;
16699;SDS011;8466;52.286;21.124;2023-04-03T12:27:21;37.03;;;34.93;;
16699;SDS011;8466;52.286;21.124;2023-04-03T12:30:00;56.23;;;53.17;;
16699;SDS011;8466;52.286;21.124;2023-04-03T12:32:51;42.00;;;39.53;;
16699;SDS011;8466;52.286;21.124;2023-04-03T12:35:40;60.10;;;56.63;;
16699;SDS011;8466;52.286;21.124;2023-04-03T12:38:20;67.87;;;63.83;;
16699;SDS011;8466;52.286;21.124;2023-04-03T12:41:04;65.27;;;61.13;;
16699;SDS011;8466;52.286;21.124;2023-04-03T12:44:01;129.30;;;120.77;;
16699;SDS011;8466;52.286;21.124;2023-04-03T12:46:53;50.67;;;47.77;;
16699;SDS011;8466;52.286;21.124;2023-04-03T12:49:30;53.60;;;50.57;;
16699;SDS011;8466;52.286;21.124;2023-04-03T12:52:05;54.17;;;50.87;;
16699;SDS011;8466;52.286;21.124;2023-04-03T12:54:49;42.40;;;40.10;;
16699;SDS011;8466;52.286;21.124;2023-04-03T12:57:20;51.97;;;48.87;;
16699;SDS011;8466;52.286;21.124;2023-04-03T12:59:51;33.87;;;31.97;;
16699;SDS011;8466;52.286;21.124;2023-04-03T13:02:21;86.97;;;81.97;;
16699;SDS011;8466;52.286;21.124;2023-04-03T13:04:53;67.30;;;63.40;;
16699;SDS011;8466;52.286;21.124;2023-04-03T13:07:25;78.37;;;73.93;;
16699;SDS011;8466;52.286;21.124;2023-04-03T13:10:01;60.40;;;56.83;;
16699;SDS011;8466;52.286;21.124;2023-04-03T13:12:31;61.37;;;57.77;;
16699;SDS011;8466;52.286;21.124;2023-04-03T13:15:02;60.10;;;56.50;;
16699;SDS011;8466;52.286;21.124;2023-04-03T13:17:42;49.80;;;46.83;;
16699;SDS011;8466;52.286;21.124;2023-04-03T13:20:12;75.60;;;71.13;;
16699;SDS011;8466;52.286;21.124;2023-04-03T13:22:48;89.70;;;84.47;;
16699;SDS011;8466;52.286;21.124;2023-04-03T13:25:21;102.00;;;95.83;;
16699;SDS011;8466;52.286;21.124;2023-04-03T13:27:52;87.93;;;82.50;;
16699;SDS011;8466;52.286;21.124;2023-04-03T13:30:38;90.87;;;85.37;;
16699;SDS011;8466;52.286;21.124;2023-04-03T13:33:18;103.57;;;97.23;;
16699;SDS011;8466;52.286;21.124;2023-04-03T13:35:54;85.00;;;79.90;;
16699;SDS011;8466;52.286;21.124;2023-04-03T13:38:24;103.13;;;97.33;;
16699;SDS011;8466;52.286;21.124;2023-04-03T13:40:56;82.13;;;77.20;;
16699;SDS011;8466;52.286;21.124;2023-04-03T13:43:38;91.73;;;86.23;;
16699;SDS011;8466;52.286;21.124;2023-04-03T13:46:22;88.47;;;83.17;;
16699;SDS011;8466;52.286;21.124;2023-04-03T13:48:53;85.23;;;79.90;;
16699;SDS011;8466;52.286;21.124;2023-04-03T13:51:24;70.37;;;66.23;;
16699;SDS011;8466;52.286;21.124;2023-04-03T13:53:55;76.77;;;72.37;;
16699;SDS011;8466;52.286;21.124;2023-04-03T13:56:29;87.37;;;81.87;;
16699;SDS011;8466;52.286;21.124;2023-04-03T13:59:18;60.83;;;57.27;;
16699;SDS011;8466;52.286;21.124;2023-04-03T14:01:51;56.53;;;53.30;;
16699;SDS011;8466;52.286;21.124;2023-04-03T14:04:22;97.57;;;91.83;;
16699;SDS011;8466;52.286;21.124;2023-04-03T14:06:53;99.60;;;93.53;;
16699;SDS011;8466;52.286;21.124;2023-04-03T14:09:23;101.40;;;95.37;;
16699;SDS011;8466;52.286;21.124;2023-04-03T14:11:56;98.87;;;92.67;;
16699;SDS011;8466;52.286;21.124;2023-04-03T14:14:29;103.40;;;97.10;;
16699;SDS011;8466;52.286;21.124;2023-04-03T14:17:00;126.13;;;118.70;;
16699;SDS011;8466;52.286;21.124;2023-04-03T14:19:51;98.60;;;92.43;;
16699;SDS011;8466;52.286;21.124;2023-04-03T14:22:21;77.83;;;73.13;;
16699;SDS011;8466;52.286;21.124;2023-04-03T14:24:51;88.73;;;83.53;;
16699;SDS011;8466;52.286;21.124;2023-04-03T14:27:23;77.80;;;73.33;;
16699;SDS011;8466;52.286;21.124;2023-04-03T14:29:54;76.03;;;71.40;;
16699;SDS011;8466;52.286;21.124;2023-04-03T14:32:24;72.93;;;68.73;;
16699;SDS011;8466;52.286;21.124;2023-04-03T14:34:54;66.57;;;62.60;;
16699;SDS011;8466;52.286;21.124;2023-04-03T14:37:24;72.10;;;67.90;;
16699;SDS011;8466;52.286;21.124;2023-04-03T14:39:56;49.33;;;46.37;;
16699;SDS011;8466;52.286;21.124;2023-04-03T14:42:29;55.83;;;52.27;;
16699;SDS011;8466;52.286;21.124;2023-04-03T14:44:59;54.63;;;51.47;;
16699;SDS011;8466;52.286;21.124;2023-04-03T14:47:32;53.07;;;50.03;;
16699;SDS011;8466;52.286;21.124;2023-04-03T14:50:06;88.77;;;83.40;;
16699;SDS011;8466;52.286;21.124;2023-04-03T14:52:43;115.97;;;109.00;;
16699;SDS011;8466;52.286;21.124;2023-04-03T14:55:14;3.15;;;2.85;;
16699;SDS011;8466;52.286;21.124;2023-04-03T14:57:46;88.03;;;82.23;;
16699;SDS011;8466;52.286;21.124;2023-04-03T15:00:16;67.03;;;63.03;;
16699;SDS011;8466;52.286;21.124;2023-04-03T15:02:47;70.77;;;66.57;;
16699;SDS011;8466;52.286;21.124;2023-04-03T15:05:17;65.13;;;61.17;;
16699;SDS011;8466;52.286;21.124;2023-04-03T15:07:46;38.03;;;35.63;;
16699;SDS011;8466;52.286;21.124;2023-04-03T15:10:19;38.30;;;36.17;;
16699;SDS011;8466;52.286;21.124;2023-04-03T15:12:51;29.57;;;27.83;;
16699;SDS011;8466;52.286;21.124;2023-04-03T15:15:21;30.20;;;28.60;;